createdAt,value
2018-09-04T00:00:52.016Z,18.83
2018-09-04T00:03:34.094Z,18.86
2018-09-04T00:06:14.649Z,18.87
2018-09-04T00:08:55.538Z,18.88
2018-09-04T00:11:36.072Z,18.89
2018-09-04T00:14:16.058Z,18.90
2018-09-04T00:16:54.911Z,18.92
2018-09-04T00:19:36.099Z,18.91
2018-09-04T00:22:18.538Z,18.92
2018-09-04T00:24:58.689Z,18.92
2018-09-04T00:27:38.134Z,18.92
2018-09-04T00:30:17.878Z,18.95
2018-09-04T00:33:00.293Z,18.94
2018-09-04T00:35:41.174Z,18.94
2018-09-04T00:38:28.616Z,18.95
2018-09-04T00:41:07.992Z,18.96
2018-09-04T00:43:47.389Z,18.96
2018-09-04T00:46:30.992Z,18.96
2018-09-04T00:49:11.218Z,18.97
2018-09-04T00:51:52.531Z,18.98
2018-09-04T00:54:30.753Z,18.99
2018-09-04T00:57:10.778Z,18.99
2018-09-04T00:59:51.074Z,19.00
2018-09-04T01:02:32.991Z,19.01
2018-09-04T01:05:13.356Z,19.02
2018-09-04T01:07:53.613Z,19.00
2018-09-04T01:10:35.590Z,19.00
2018-09-04T01:13:16.131Z,18.96
2018-09-04T01:15:56.113Z,18.94
2018-09-04T01:18:36.816Z,18.94
2018-09-04T01:21:16.389Z,18.94
2018-09-04T01:23:59.653Z,18.94
2018-09-04T01:26:40.078Z,18.94
2018-09-04T01:29:19.456Z,18.92
2018-09-04T01:31:59.093Z,18.90
2018-09-04T01:34:42.452Z,18.92
2018-09-04T01:37:22.240Z,18.91
2018-09-04T01:40:00.253Z,18.90
2018-09-04T01:42:41.393Z,18.91
2018-09-04T01:45:20.034Z,18.90
2018-09-04T01:48:03.968Z,18.91
2018-09-04T01:50:42.637Z,18.91
2018-09-04T01:53:24.594Z,18.91
2018-09-04T01:56:03.875Z,18.91
2018-09-04T01:58:45.611Z,18.91
2018-09-04T02:01:26.169Z,18.91
2018-09-04T02:04:06.517Z,18.92
2018-09-04T02:06:49.234Z,18.93
2018-09-04T02:09:30.199Z,18.93
2018-09-04T02:12:10.531Z,18.94
2018-09-04T02:14:50.858Z,18.93
2018-09-04T02:17:34.754Z,18.92
2018-09-04T02:20:15.814Z,18.89
2018-09-04T02:23:01.651Z,18.90
2018-09-04T02:25:42.218Z,18.91
2018-09-04T02:28:25.915Z,18.91
2018-09-04T02:31:11.774Z,18.92
2018-09-04T02:33:50.560Z,18.89
2018-09-04T02:36:30.093Z,18.87
2018-09-04T02:39:13.933Z,18.84
2018-09-04T02:41:54.851Z,18.82
2018-09-04T02:44:36.730Z,18.83
2018-09-04T02:47:15.057Z,18.83
2018-09-04T02:49:56.554Z,18.83
2018-09-04T04:07:16.901Z,18.31
2018-09-04T04:09:57.881Z,18.33
2018-09-04T04:12:39.066Z,18.36
2018-09-04T04:15:19.741Z,18.39
2018-09-04T04:18:03.104Z,18.42
2018-09-04T04:20:49.396Z,18.43
2018-09-04T04:23:32.744Z,18.44
2018-09-04T04:26:14.021Z,18.45
2018-09-04T04:28:58.283Z,18.46
2018-09-04T04:31:41.463Z,18.47
2018-09-04T04:34:24.416Z,18.48
2018-09-04T04:37:06.901Z,18.50
2018-09-04T04:39:48.930Z,18.48
2018-09-04T04:42:33.480Z,18.48
2018-09-04T04:45:12.147Z,18.48
2018-09-04T04:47:54.645Z,18.48
2018-09-04T04:50:38.798Z,18.49
2018-09-04T04:53:21.616Z,18.50
2018-09-04T04:56:05.461Z,18.50
2018-09-04T04:58:44.937Z,18.53
2018-09-04T05:01:27.344Z,18.55
2018-09-04T05:04:13.393Z,18.56
2018-09-04T05:06:58.600Z,18.58
2018-09-04T05:09:39.581Z,18.54
2018-09-04T05:12:21.684Z,18.57
2018-09-04T05:15:04.876Z,18.59
2018-09-04T05:17:54.544Z,18.61
2018-09-04T05:20:37.490Z,18.63
2018-09-04T05:23:18.859Z,18.61
2018-09-04T05:25:59.563Z,18.62
2018-09-04T05:28:43.060Z,18.63
2018-09-04T05:31:30.257Z,18.66
2018-09-04T05:34:11.359Z,18.67
2018-09-04T05:36:53.057Z,18.68
2018-09-04T05:39:42.765Z,18.70
2018-09-04T05:42:34.283Z,18.71
2018-09-04T05:45:48.485Z,18.73
2018-09-04T05:48:30.002Z,18.73
2018-09-04T05:51:08.317Z,18.75
2018-09-04T05:53:47.358Z,18.78
2018-09-04T05:56:45.078Z,18.80
2018-09-04T05:59:31.694Z,18.83
2018-09-04T06:02:12.836Z,18.86
2018-09-04T06:05:01.399Z,18.89
2018-09-04T06:07:46.860Z,18.91
2018-09-04T06:10:31.457Z,18.89
2018-09-04T06:13:10.575Z,18.90
2018-09-04T06:15:56.097Z,18.91
2018-09-04T06:18:42.782Z,18.93
2018-09-04T06:21:27.620Z,18.93
2018-09-04T06:24:07.965Z,18.93
2018-09-04T06:26:53.461Z,18.95
2018-09-04T06:29:37.852Z,18.96
2018-09-04T06:32:16.618Z,18.96
2018-09-04T06:34:58.982Z,18.99
2018-09-04T06:37:44.504Z,18.99
2018-09-04T06:40:28.461Z,19.00
2018-09-04T06:43:11.926Z,19.05
2018-09-04T06:45:57.201Z,19.08
2018-09-04T06:48:45.258Z,19.11
2018-09-04T06:51:30.306Z,19.14
2018-09-04T06:54:16.540Z,19.19
2018-09-04T06:56:59.361Z,19.23
2018-09-04T06:59:40.198Z,19.24
2018-09-04T07:02:27.240Z,19.24
2018-09-04T07:05:10.979Z,19.24
2018-09-04T07:07:52.803Z,19.25
2018-09-04T07:10:34.199Z,19.29
2018-09-04T07:13:17.139Z,19.30
2018-09-04T07:15:59.860Z,19.33
2018-09-04T07:18:40.762Z,19.35
2018-09-04T07:21:27.242Z,19.39
2018-09-04T07:24:13.991Z,19.40
2018-09-04T07:26:57.599Z,19.44
2018-09-04T07:29:51.140Z,19.43
2018-09-04T07:32:36.425Z,19.45
2018-09-04T07:35:18.523Z,19.44
2018-09-04T07:38:00.941Z,19.43
2018-09-04T07:40:41.331Z,19.46
2018-09-04T07:43:21.303Z,19.46
2018-09-04T07:46:07.463Z,19.48
2018-09-04T07:48:46.422Z,19.47
2018-09-04T07:51:27.176Z,19.45
2018-09-04T07:54:07.757Z,19.43
2018-09-04T07:56:49.883Z,19.45
2018-09-04T07:59:35.239Z,19.45
2018-09-04T08:02:15.026Z,19.46
2018-09-04T08:04:59.446Z,19.47
2018-09-04T08:07:49.937Z,19.51
2018-09-04T08:10:32.865Z,19.57
2018-09-04T08:13:18.061Z,19.63
2018-09-04T08:16:03.565Z,19.73
2018-09-04T09:25:12.468Z,21.17
2018-09-04T09:40:56.982Z,21.53
2018-09-04T09:50:45.670Z,21.67
2018-09-04T10:18:27.203Z,22.66
2018-09-04T11:11:50.385Z,23.61
2018-09-04T11:14:44.266Z,23.58
2018-09-04T11:17:31.006Z,23.64
2018-09-04T11:20:23.120Z,23.72
2018-09-04T11:23:10.399Z,23.94
2018-09-04T11:26:09.044Z,24.25
2018-09-04T11:29:09.301Z,24.55
2018-09-04T11:32:09.663Z,24.69
2018-09-04T11:35:03.822Z,24.75
2018-09-04T11:37:55.803Z,24.79
2018-09-04T11:40:48.077Z,24.83
2018-09-04T11:43:43.090Z,24.90
2018-09-04T11:46:44.994Z,24.93
2018-09-04T11:49:33.921Z,25.01
2018-09-04T11:52:27.751Z,25.03
2018-09-04T11:55:17.866Z,24.99
2018-09-04T13:39:49.612Z,26.11
2018-09-04T13:42:36.787Z,26.08
2018-09-04T14:06:12.435Z,26.43
2018-09-04T14:09:07.914Z,26.49
2018-09-04T14:12:03.555Z,26.57
2018-09-04T14:15:00.102Z,26.61
2018-09-04T14:17:49.631Z,26.55
2018-09-04T14:20:42.520Z,26.58
2018-09-04T14:23:31.215Z,26.66
2018-09-04T14:26:17.156Z,26.66
2018-09-04T14:29:11.292Z,26.67
2018-09-04T14:31:56.317Z,26.68
2018-09-04T14:34:45.578Z,26.62
2018-09-04T14:37:33.853Z,26.62
2018-09-04T14:40:25.661Z,26.68
2018-09-04T14:43:15.433Z,26.73
2018-09-04T14:48:54.454Z,26.75
2018-09-04T14:51:46.617Z,26.77
2018-09-04T14:54:34.449Z,26.78
2018-09-04T14:57:24.962Z,26.78
2018-09-04T15:00:14.714Z,26.77
2018-09-04T15:03:05.436Z,26.74
2018-09-04T15:41:51.774Z,25.82
2018-09-04T15:48:30.473Z,25.59
2018-09-04T15:51:12.176Z,25.51
2018-09-04T15:53:57.871Z,25.51
2018-09-04T15:56:39.808Z,25.52
2018-09-04T15:59:20.890Z,25.46
2018-09-04T16:02:00.493Z,25.40
2018-09-04T16:04:46.274Z,25.37
2018-09-04T16:07:29.656Z,25.30
2018-09-04T16:10:09.520Z,25.19
2018-09-04T16:12:55.227Z,25.12
2018-09-04T16:15:46.760Z,25.02
2018-09-04T16:18:26.287Z,24.92
2018-09-04T16:21:10.975Z,24.82
2018-09-04T16:23:54.212Z,24.74
2018-09-04T16:26:32.849Z,24.61
2018-09-04T16:29:18.473Z,24.50
2018-09-04T16:31:59.333Z,24.33
2018-09-04T16:34:39.580Z,24.20
2018-09-04T16:37:22.813Z,24.08
2018-09-04T16:40:01.711Z,23.97
2018-09-04T16:42:45.632Z,23.87
2018-09-04T16:45:33.148Z,23.79
2018-09-04T16:48:12.294Z,23.72
2018-09-04T16:50:54.813Z,23.66
2018-09-04T16:53:37.728Z,23.59
2018-09-04T16:56:19.631Z,23.51
2018-09-04T16:59:02.957Z,23.43
2018-09-04T17:01:45.652Z,23.36
2018-09-04T17:04:25.115Z,23.27
2018-09-04T17:07:06.713Z,23.18
2018-09-04T17:09:48.260Z,23.10
2018-09-04T17:12:31.493Z,23.02
2018-09-04T17:15:09.918Z,22.93
2018-09-04T17:17:52.729Z,22.87
2018-09-04T17:20:35.392Z,22.79
2018-09-04T17:23:19.277Z,22.74
2018-09-04T17:26:01.073Z,22.66
2018-09-04T17:28:44.217Z,22.60
2018-09-04T17:31:23.953Z,22.55
2018-09-04T17:34:06.020Z,22.49
2018-09-04T17:36:47.213Z,22.46
2018-09-04T17:39:30.328Z,22.42
2018-09-04T17:42:08.090Z,22.35
2018-09-04T17:44:48.872Z,22.29
2018-09-04T17:47:28.034Z,22.22
2018-09-04T17:50:09.860Z,22.14
2018-09-04T17:52:49.495Z,22.04
2018-09-04T17:55:31.657Z,21.95
2018-09-04T17:58:11.745Z,21.86
2018-09-04T18:01:02.899Z,21.78
2018-09-04T18:03:47.393Z,21.68
2018-09-04T18:06:28.594Z,21.59
2018-09-04T18:09:09.451Z,21.51
2018-09-04T18:11:51.111Z,21.45
2018-09-04T18:14:33.557Z,21.37
2018-09-04T18:17:18.089Z,21.33
2018-09-04T18:20:00.755Z,21.28
2018-09-04T18:22:44.506Z,21.24
2018-09-04T18:25:25.868Z,21.19
2018-09-04T18:28:06.972Z,21.15
2018-09-04T18:30:48.267Z,21.12
2018-09-04T18:33:34.976Z,21.09
2018-09-04T18:36:16.022Z,21.03
2018-09-04T18:38:56.008Z,21.00
2018-09-04T18:41:38.482Z,20.96
2018-09-04T18:44:16.595Z,20.91
2018-09-04T18:46:56.291Z,20.87
2018-09-04T18:49:36.795Z,20.83
2018-09-04T18:52:15.371Z,20.78
2018-09-04T18:54:55.159Z,20.76
2018-09-04T18:57:39.671Z,20.72
2018-09-04T19:00:20.626Z,20.67
2018-09-04T19:03:00.194Z,20.63
2018-09-04T19:05:42.030Z,20.59
2018-09-04T19:08:23.775Z,20.56
2018-09-04T19:11:04.549Z,20.51
2018-09-04T19:13:44.134Z,20.47
2018-09-04T19:16:31.333Z,20.43
2018-09-04T19:19:12.470Z,20.39
2018-09-04T19:21:52.878Z,20.35
2018-09-04T19:24:35.511Z,20.31
2018-09-04T19:27:16.891Z,20.27
2018-09-04T19:29:58.839Z,20.23
2018-09-04T19:32:37.170Z,20.20
2018-09-04T19:35:17.635Z,20.17
2018-09-04T19:37:57.679Z,20.11
2018-09-04T19:40:40.131Z,20.10
2018-09-04T19:43:19.344Z,20.06
2018-09-04T19:45:59.651Z,20.03
2018-09-04T19:48:40.069Z,20.01
2018-09-04T19:51:20.711Z,19.97
2018-09-04T20:14:45.153Z,19.52
2018-09-04T20:17:26.007Z,19.48
2018-09-04T20:20:05.610Z,19.46
2018-09-04T20:22:46.610Z,19.44
2018-09-04T20:25:29.208Z,19.42
2018-09-04T20:28:09.114Z,19.41
2018-09-04T20:30:49.886Z,19.39
2018-09-04T20:33:29.409Z,19.35
2018-09-04T20:36:08.870Z,19.32
2018-09-04T20:38:48.072Z,19.29
2018-09-04T20:41:30.246Z,19.27
2018-09-04T20:44:09.312Z,19.23
2018-09-04T20:46:48.129Z,19.21
2018-09-04T20:49:29.024Z,19.18
2018-09-04T20:52:10.127Z,19.15
2018-09-04T20:54:49.408Z,19.10
2018-09-04T20:57:32.312Z,19.08
2018-09-04T21:00:25.127Z,19.03
2018-09-04T21:03:16.066Z,19.00
2018-09-04T21:06:06.972Z,18.96
2018-09-04T21:09:00.445Z,18.94
2018-09-04T21:11:41.591Z,18.91
2018-09-04T21:14:21.208Z,18.87
2018-09-04T21:17:00.496Z,18.86
2018-09-04T21:19:40.365Z,18.83
2018-09-04T21:22:20.950Z,18.82
2018-09-04T21:25:00.608Z,18.79
2018-09-04T21:27:40.162Z,18.77
2018-09-04T21:30:19.093Z,18.75
2018-09-04T21:32:58.836Z,18.72
2018-09-04T21:35:38.540Z,18.70
2018-09-04T21:38:18.867Z,18.68
2018-09-04T21:40:59.325Z,18.67
2018-09-04T21:43:39.768Z,18.64
2018-09-04T21:46:20.331Z,18.63
2018-09-04T21:49:00.046Z,18.61
2018-09-04T21:51:41.230Z,18.59
2018-09-04T21:54:21.584Z,18.56
2018-09-04T21:57:01.268Z,18.53
2018-09-04T21:59:40.187Z,18.52
2018-09-04T22:02:21.769Z,18.51
2018-09-04T22:05:01.093Z,18.48
2018-09-04T22:07:41.905Z,18.47
2018-09-04T22:10:23.189Z,18.44
2018-09-04T22:13:03.784Z,18.43
2018-09-04T22:15:43.847Z,18.39
2018-09-04T22:18:23.346Z,18.38
2018-09-04T22:21:03.145Z,18.36
2018-09-04T22:23:43.367Z,18.35
2018-09-04T22:26:26.554Z,18.33
2018-09-04T22:29:06.609Z,18.30
2018-09-04T22:31:47.593Z,18.30
2018-09-04T22:34:30.190Z,18.29
2018-09-04T22:37:11.424Z,18.28
2018-09-04T22:39:50.968Z,18.26
2018-09-04T22:42:35.308Z,18.24
2018-09-04T22:45:15.128Z,18.22
2018-09-04T22:47:54.406Z,18.19
2018-09-04T22:50:36.512Z,18.16
2018-09-04T22:53:16.123Z,18.15
2018-09-04T22:55:56.034Z,18.13
2018-09-04T22:58:36.763Z,18.09
2018-09-04T23:01:17.803Z,18.08
2018-09-04T23:03:56.267Z,18.04
2018-09-04T23:06:37.692Z,18.03
2018-09-04T23:09:18.950Z,18.01
2018-09-04T23:11:56.675Z,17.97
2018-09-04T23:14:37.326Z,17.93
2018-09-04T23:17:18.617Z,17.90
2018-09-04T23:19:57.928Z,17.86
2018-09-04T23:22:38.031Z,17.84
2018-09-04T23:25:16.848Z,17.82
2018-09-04T23:27:56.249Z,17.79
2018-09-04T23:30:35.571Z,17.77
2018-09-04T23:33:14.307Z,17.76
2018-09-04T23:35:53.350Z,17.75
2018-09-04T23:38:33.264Z,17.72
2018-09-04T23:41:12.209Z,17.69
2018-09-04T23:43:51.486Z,17.69
2018-09-04T23:46:32.590Z,17.67
2018-09-04T23:49:14.341Z,17.66
2018-09-04T23:51:54.668Z,17.63
2018-09-04T23:54:34.214Z,17.59
2018-09-04T23:57:15.283Z,17.57
2018-09-04T23:59:54.649Z,17.53
